sensor_id;sensor_type;location;lat;lon;timestamp;P1;durP1;ratioP1;P2;durP2;ratioP2
6539;SDS011;50344;51.142;16.892;2023-12-04T00:01:49;6.33;;;5.70;;
6539;SDS011;50344;51.142;16.892;2023-12-04T00:04:15;7.20;;;5.93;;
6539;SDS011;50344;51.142;16.892;2023-12-04T00:06:41;5.97;;;5.27;;
6539;SDS011;50344;51.142;16.892;2023-12-04T00:09:07;6.70;;;5.80;;
6539;SDS011;50344;51.142;16.892;2023-12-04T00:11:32;7.73;;;5.83;;
6539;SDS011;50344;51.142;16.892;2023-12-04T00:13:58;7.53;;;5.80;;
6539;SDS011;50344;51.142;16.892;2023-12-04T00:16:24;6.07;;;5.40;;
6539;SDS011;50344;51.142;16.892;2023-12-04T00:18:50;8.40;;;6.03;;
6539;SDS011;50344;51.142;16.892;2023-12-04T00:21:16;6.23;;;5.63;;
6539;SDS011;50344;51.142;16.892;2023-12-04T00:23:41;7.20;;;5.80;;
6539;SDS011;50344;51.142;16.892;2023-12-04T00:26:07;7.70;;;5.97;;
6539;SDS011;50344;51.142;16.892;2023-12-04T00:28:35;7.00;;;6.30;;
6539;SDS011;50344;51.142;16.892;2023-12-04T00:31:01;7.70;;;5.50;;
6539;SDS011;50344;51.142;16.892;2023-12-04T00:33:27;7.90;;;6.80;;
6539;SDS011;50344;51.142;16.892;2023-12-04T00:35:52;5.90;;;5.30;;
6539;SDS011;50344;51.142;16.892;2023-12-04T00:38:18;7.00;;;6.30;;
6539;SDS011;50344;51.142;16.892;2023-12-04T00:40:43;6.20;;;5.60;;
6539;SDS011;50344;51.142;16.892;2023-12-04T00:43:09;6.97;;;6.27;;
6539;SDS011;50344;51.142;16.892;2023-12-04T00:45:35;7.40;;;6.67;;
6539;SDS011;50344;51.142;16.892;2023-12-04T00:48:00;5.97;;;5.40;;
6539;SDS011;50344;51.142;16.892;2023-12-04T00:50:27;7.13;;;6.10;;
6539;SDS011;50344;51.142;16.892;2023-12-04T00:52:52;7.00;;;6.30;;
6539;SDS011;50344;51.142;16.892;2023-12-04T00:55:18;7.43;;;6.70;;
6539;SDS011;50344;51.142;16.892;2023-12-04T00:57:44;6.67;;;6.00;;
6539;SDS011;50344;51.142;16.892;2023-12-04T01:00:10;6.93;;;6.23;;
6539;SDS011;50344;51.142;16.892;2023-12-04T01:02:36;6.80;;;6.10;;
6539;SDS011;50344;51.142;16.892;2023-12-04T01:05:02;6.57;;;5.67;;
6539;SDS011;50344;51.142;16.892;2023-12-04T01:07:27;7.40;;;6.63;;
6539;SDS011;50344;51.142;16.892;2023-12-04T01:09:54;7.97;;;7.10;;
6539;SDS011;50344;51.142;16.892;2023-12-04T01:12:19;7.53;;;6.80;;
6539;SDS011;50344;51.142;16.892;2023-12-04T01:14:46;7.23;;;6.53;;
6539;SDS011;50344;51.142;16.892;2023-12-04T01:17:11;8.33;;;7.47;;
6539;SDS011;50344;51.142;16.892;2023-12-04T01:19:37;8.40;;;7.50;;
6539;SDS011;50344;51.142;16.892;2023-12-04T01:22:03;9.80;;;7.63;;
6539;SDS011;50344;51.142;16.892;2023-12-04T01:24:30;8.07;;;7.17;;
6539;SDS011;50344;51.142;16.892;2023-12-04T01:26:56;7.20;;;6.50;;
6539;SDS011;50344;51.142;16.892;2023-12-04T01:29:21;7.87;;;6.90;;
6539;SDS011;50344;51.142;16.892;2023-12-04T01:31:47;8.03;;;7.23;;
6539;SDS011;50344;51.142;16.892;2023-12-04T01:34:12;7.73;;;6.37;;
6539;SDS011;50344;51.142;16.892;2023-12-04T01:36:41;7.70;;;6.70;;
6539;SDS011;50344;51.142;16.892;2023-12-04T01:39:07;7.70;;;6.90;;
6539;SDS011;50344;51.142;16.892;2023-12-04T01:41:33;8.80;;;7.57;;
6539;SDS011;50344;51.142;16.892;2023-12-04T01:43:58;8.50;;;7.33;;
6539;SDS011;50344;51.142;16.892;2023-12-04T01:46:24;7.80;;;7.03;;
6539;SDS011;50344;51.142;16.892;2023-12-04T01:48:50;8.47;;;7.60;;
6539;SDS011;50344;51.142;16.892;2023-12-04T01:51:17;8.90;;;7.60;;
6539;SDS011;50344;51.142;16.892;2023-12-04T01:53:44;8.70;;;7.37;;
6539;SDS011;50344;51.142;16.892;2023-12-04T01:56:10;11.20;;;7.20;;
6539;SDS011;50344;51.142;16.892;2023-12-04T01:58:38;8.40;;;7.53;;
6539;SDS011;50344;51.142;16.892;2023-12-04T02:01:04;8.97;;;7.90;;
6539;SDS011;50344;51.142;16.892;2023-12-04T02:03:31;9.07;;;8.17;;
6539;SDS011;50344;51.142;16.892;2023-12-04T02:05:59;8.40;;;7.53;;
6539;SDS011;50344;51.142;16.892;2023-12-04T02:08:27;8.97;;;8.07;;
6539;SDS011;50344;51.142;16.892;2023-12-04T02:10:53;8.77;;;7.87;;
6539;SDS011;50344;51.142;16.892;2023-12-04T02:13:19;8.33;;;7.53;;
6539;SDS011;50344;51.142;16.892;2023-12-04T02:15:45;9.13;;;8.23;;
6539;SDS011;50344;51.142;16.892;2023-12-04T02:18:16;9.37;;;7.47;;
6539;SDS011;50344;51.142;16.892;2023-12-04T02:20:43;9.57;;;8.67;;
6539;SDS011;50344;51.142;16.892;2023-12-04T02:23:08;9.53;;;8.53;;
6539;SDS011;50344;51.142;16.892;2023-12-04T02:25:34;9.37;;;8.33;;
6539;SDS011;50344;51.142;16.892;2023-12-04T02:28:01;10.43;;;9.33;;
6539;SDS011;50344;51.142;16.892;2023-12-04T02:30:29;9.77;;;8.87;;
6539;SDS011;50344;51.142;16.892;2023-12-04T02:32:56;8.50;;;7.50;;
6539;SDS011;50344;51.142;16.892;2023-12-04T02:35:24;9.60;;;8.70;;
6539;SDS011;50344;51.142;16.892;2023-12-04T02:37:54;8.73;;;7.93;;
6539;SDS011;50344;51.142;16.892;2023-12-04T02:40:23;9.57;;;8.67;;
6539;SDS011;50344;51.142;16.892;2023-12-04T02:42:49;9.00;;;8.10;;
6539;SDS011;50344;51.142;16.892;2023-12-04T02:45:15;9.17;;;8.23;;
6539;SDS011;50344;51.142;16.892;2023-12-04T02:47:40;9.43;;;8.50;;
6539;SDS011;50344;51.142;16.892;2023-12-04T02:50:06;9.23;;;8.33;;
6539;SDS011;50344;51.142;16.892;2023-12-04T02:52:32;10.47;;;9.00;;
6539;SDS011;50344;51.142;16.892;2023-12-04T02:54:57;8.57;;;7.77;;
6539;SDS011;50344;51.142;16.892;2023-12-04T02:57:23;10.30;;;9.30;;
6539;SDS011;50344;51.142;16.892;2023-12-04T02:59:49;10.10;;;9.10;;
6539;SDS011;50344;51.142;16.892;2023-12-04T03:02:14;9.90;;;8.97;;
6539;SDS011;50344;51.142;16.892;2023-12-04T03:04:40;11.60;;;10.07;;
6539;SDS011;50344;51.142;16.892;2023-12-04T03:07:06;10.30;;;9.30;;
6539;SDS011;50344;51.142;16.892;2023-12-04T03:09:31;9.40;;;8.60;;
6539;SDS011;50344;51.142;16.892;2023-12-04T03:11:57;10.47;;;8.87;;
6539;SDS011;50344;51.142;16.892;2023-12-04T03:14:22;10.03;;;8.80;;
6539;SDS011;50344;51.142;16.892;2023-12-04T03:16:49;9.77;;;8.80;;
6539;SDS011;50344;51.142;16.892;2023-12-04T03:19:15;9.67;;;8.70;;
6539;SDS011;50344;51.142;16.892;2023-12-04T03:21:40;9.13;;;8.23;;
6539;SDS011;50344;51.142;16.892;2023-12-04T03:24:06;10.50;;;9.40;;
6539;SDS011;50344;51.142;16.892;2023-12-04T03:26:31;12.77;;;9.03;;
6539;SDS011;50344;51.142;16.892;2023-12-04T03:28:57;9.77;;;8.80;;
6539;SDS011;50344;51.142;16.892;2023-12-04T03:31:23;9.63;;;8.60;;
6539;SDS011;50344;51.142;16.892;2023-12-04T03:33:48;10.70;;;9.00;;
6539;SDS011;50344;51.142;16.892;2023-12-04T03:36:14;9.77;;;8.87;;
6539;SDS011;50344;51.142;16.892;2023-12-04T03:38:39;10.50;;;9.37;;
6539;SDS011;50344;51.142;16.892;2023-12-04T03:41:12;11.30;;;10.20;;
6539;SDS011;50344;51.142;16.892;2023-12-04T03:43:39;10.10;;;9.20;;
6539;SDS011;50344;51.142;16.892;2023-12-04T03:46:05;10.77;;;9.67;;
6539;SDS011;50344;51.142;16.892;2023-12-04T03:48:30;10.80;;;9.63;;
6539;SDS011;50344;51.142;16.892;2023-12-04T03:50:56;11.73;;;10.60;;
6539;SDS011;50344;51.142;16.892;2023-12-04T03:53:22;10.77;;;9.77;;
6539;SDS011;50344;51.142;16.892;2023-12-04T03:55:48;10.80;;;9.20;;
6539;SDS011;50344;51.142;16.892;2023-12-04T03:58:14;10.77;;;9.67;;
6539;SDS011;50344;51.142;16.892;2023-12-04T04:00:39;11.30;;;9.60;;
6539;SDS011;50344;51.142;16.892;2023-12-04T04:03:08;11.57;;;10.37;;
6539;SDS011;50344;51.142;16.892;2023-12-04T04:05:36;11.00;;;9.90;;
6539;SDS011;50344;51.142;16.892;2023-12-04T04:08:02;10.80;;;9.73;;
6539;SDS011;50344;51.142;16.892;2023-12-04T04:10:30;11.10;;;10.00;;
6539;SDS011;50344;51.142;16.892;2023-12-04T04:12:56;11.47;;;10.00;;
6539;SDS011;50344;51.142;16.892;2023-12-04T04:15:22;11.50;;;10.27;;
6539;SDS011;50344;51.142;16.892;2023-12-04T04:17:48;12.73;;;11.50;;
6539;SDS011;50344;51.142;16.892;2023-12-04T04:20:14;12.80;;;11.50;;
6539;SDS011;50344;51.142;16.892;2023-12-04T04:22:40;11.40;;;10.20;;
6539;SDS011;50344;51.142;16.892;2023-12-04T04:25:06;11.50;;;10.30;;
6539;SDS011;50344;51.142;16.892;2023-12-04T04:27:32;11.83;;;10.63;;
6539;SDS011;50344;51.142;16.892;2023-12-04T04:29:59;11.43;;;10.33;;
6539;SDS011;50344;51.142;16.892;2023-12-04T04:32:25;11.60;;;10.40;;
6539;SDS011;50344;51.142;16.892;2023-12-04T04:34:50;10.70;;;9.60;;
6539;SDS011;50344;51.142;16.892;2023-12-04T04:37:16;11.73;;;10.60;;
6539;SDS011;50344;51.142;16.892;2023-12-04T04:39:41;11.10;;;9.90;;
6539;SDS011;50344;51.142;16.892;2023-12-04T04:42:07;11.90;;;10.70;;
6539;SDS011;50344;51.142;16.892;2023-12-04T04:44:33;10.50;;;9.40;;
6539;SDS011;50344;51.142;16.892;2023-12-04T04:46:59;11.97;;;10.67;;
6539;SDS011;50344;51.142;16.892;2023-12-04T04:49:24;12.63;;;10.13;;
6539;SDS011;50344;51.142;16.892;2023-12-04T04:51:50;12.33;;;11.03;;
6539;SDS011;50344;51.142;16.892;2023-12-04T04:54:16;11.37;;;10.27;;
6539;SDS011;50344;51.142;16.892;2023-12-04T04:56:41;12.87;;;11.53;;
6539;SDS011;50344;51.142;16.892;2023-12-04T04:59:07;11.67;;;10.43;;
6539;SDS011;50344;51.142;16.892;2023-12-04T05:01:32;11.27;;;10.13;;
6539;SDS011;50344;51.142;16.892;2023-12-04T05:03:58;11.83;;;10.63;;
6539;SDS011;50344;51.142;16.892;2023-12-04T05:06:24;12.60;;;11.30;;
6539;SDS011;50344;51.142;16.892;2023-12-04T05:08:50;11.30;;;10.13;;
6539;SDS011;50344;51.142;16.892;2023-12-04T05:11:17;13.43;;;11.47;;
6539;SDS011;50344;51.142;16.892;2023-12-04T05:13:44;12.07;;;10.50;;
6539;SDS011;50344;51.142;16.892;2023-12-04T05:16:10;11.80;;;10.60;;
6539;SDS011;50344;51.142;16.892;2023-12-04T05:18:35;12.70;;;11.10;;
6539;SDS011;50344;51.142;16.892;2023-12-04T05:21:01;11.70;;;10.50;;
6539;SDS011;50344;51.142;16.892;2023-12-04T05:23:27;12.23;;;11.03;;
6539;SDS011;50344;51.142;16.892;2023-12-04T05:25:53;12.20;;;11.00;;
6539;SDS011;50344;51.142;16.892;2023-12-04T05:28:19;11.57;;;10.30;;
6539;SDS011;50344;51.142;16.892;2023-12-04T05:30:44;12.70;;;11.40;;
6539;SDS011;50344;51.142;16.892;2023-12-04T05:33:10;12.27;;;10.87;;
6539;SDS011;50344;51.142;16.892;2023-12-04T05:35:36;12.20;;;10.90;;
6539;SDS011;50344;51.142;16.892;2023-12-04T05:38:02;11.40;;;10.30;;
6539;SDS011;50344;51.142;16.892;2023-12-04T05:40:28;11.20;;;9.60;;
6539;SDS011;50344;51.142;16.892;2023-12-04T05:42:53;12.63;;;10.80;;
6539;SDS011;50344;51.142;16.892;2023-12-04T05:45:19;12.30;;;10.93;;
6539;SDS011;50344;51.142;16.892;2023-12-04T05:47:45;11.77;;;10.50;;
6539;SDS011;50344;51.142;16.892;2023-12-04T05:50:11;11.43;;;10.27;;
6539;SDS011;50344;51.142;16.892;2023-12-04T05:52:36;11.50;;;10.30;;
6539;SDS011;50344;51.142;16.892;2023-12-04T05:55:02;11.47;;;10.30;;
6539;SDS011;50344;51.142;16.892;2023-12-04T05:57:28;12.40;;;11.10;;
6539;SDS011;50344;51.142;16.892;2023-12-04T05:59:54;11.20;;;10.10;;
6539;SDS011;50344;51.142;16.892;2023-12-04T06:02:19;11.53;;;10.43;;
6539;SDS011;50344;51.142;16.892;2023-12-04T06:04:45;11.57;;;10.47;;
6539;SDS011;50344;51.142;16.892;2023-12-04T06:07:11;13.20;;;11.07;;
6539;SDS011;50344;51.142;16.892;2023-12-04T06:09:37;14.20;;;11.70;;
6539;SDS011;50344;51.142;16.892;2023-12-04T06:12:02;12.30;;;11.10;;
6539;SDS011;50344;51.142;16.892;2023-12-04T06:14:33;11.83;;;10.60;;
6539;SDS011;50344;51.142;16.892;2023-12-04T06:17:00;14.23;;;11.27;;
6539;SDS011;50344;51.142;16.892;2023-12-04T06:19:25;13.03;;;10.47;;
6539;SDS011;50344;51.142;16.892;2023-12-04T06:21:53;13.03;;;11.07;;
6539;SDS011;50344;51.142;16.892;2023-12-04T06:24:19;17.30;;;11.40;;
6539;SDS011;50344;51.142;16.892;2023-12-04T06:26:45;14.00;;;11.23;;
6539;SDS011;50344;51.142;16.892;2023-12-04T06:29:15;14.53;;;11.27;;
6539;SDS011;50344;51.142;16.892;2023-12-04T06:31:41;16.00;;;10.60;;
6539;SDS011;50344;51.142;16.892;2023-12-04T06:34:07;13.87;;;11.17;;
6539;SDS011;50344;51.142;16.892;2023-12-04T06:36:35;18.00;;;10.70;;
6539;SDS011;50344;51.142;16.892;2023-12-04T06:39:04;15.90;;;10.97;;
6539;SDS011;50344;51.142;16.892;2023-12-04T06:41:33;13.43;;;10.60;;
6539;SDS011;50344;51.142;16.892;2023-12-04T06:43:59;15.37;;;11.90;;
6539;SDS011;50344;51.142;16.892;2023-12-04T06:46:25;15.00;;;11.57;;
6539;SDS011;50344;51.142;16.892;2023-12-04T06:48:54;13.07;;;11.33;;
6539;SDS011;50344;51.142;16.892;2023-12-04T06:51:22;12.10;;;10.70;;
6539;SDS011;50344;51.142;16.892;2023-12-04T06:53:48;14.00;;;11.57;;
6539;SDS011;50344;51.142;16.892;2023-12-04T06:56:13;12.60;;;11.30;;
6539;SDS011;50344;51.142;16.892;2023-12-04T06:58:40;12.00;;;10.80;;
6539;SDS011;50344;51.142;16.892;2023-12-04T07:01:05;12.83;;;11.50;;
6539;SDS011;50344;51.142;16.892;2023-12-04T07:03:31;13.50;;;11.60;;
6539;SDS011;50344;51.142;16.892;2023-12-04T07:05:57;14.13;;;11.17;;
6539;SDS011;50344;51.142;16.892;2023-12-04T07:08:22;12.50;;;11.20;;
6539;SDS011;50344;51.142;16.892;2023-12-04T07:10:48;12.20;;;10.90;;
6539;SDS011;50344;51.142;16.892;2023-12-04T07:13:14;12.90;;;11.20;;
6539;SDS011;50344;51.142;16.892;2023-12-04T07:15:39;12.60;;;11.30;;
6539;SDS011;50344;51.142;16.892;2023-12-04T07:18:05;12.57;;;11.37;;
6539;SDS011;50344;51.142;16.892;2023-12-04T07:20:30;12.70;;;11.40;;
6539;SDS011;50344;51.142;16.892;2023-12-04T07:22:56;13.30;;;11.90;;
6539;SDS011;50344;51.142;16.892;2023-12-04T07:25:23;12.90;;;11.63;;
6539;SDS011;50344;51.142;16.892;2023-12-04T07:27:49;13.50;;;12.00;;
6539;SDS011;50344;51.142;16.892;2023-12-04T07:30:14;12.60;;;10.27;;
6539;SDS011;50344;51.142;16.892;2023-12-04T07:32:40;13.13;;;11.83;;
6539;SDS011;50344;51.142;16.892;2023-12-04T07:35:06;12.47;;;11.17;;
6539;SDS011;50344;51.142;16.892;2023-12-04T07:37:32;14.33;;;12.30;;
6539;SDS011;50344;51.142;16.892;2023-12-04T07:39:58;12.07;;;10.87;;
6539;SDS011;50344;51.142;16.892;2023-12-04T07:42:24;12.87;;;11.13;;
6539;SDS011;50344;51.142;16.892;2023-12-04T07:44:50;12.70;;;11.40;;
6539;SDS011;50344;51.142;16.892;2023-12-04T07:47:15;12.80;;;11.50;;
6539;SDS011;50344;51.142;16.892;2023-12-04T07:49:41;12.90;;;11.60;;
6539;SDS011;50344;51.142;16.892;2023-12-04T07:52:09;13.60;;;10.83;;
6539;SDS011;50344;51.142;16.892;2023-12-04T07:54:36;17.77;;;11.80;;
6539;SDS011;50344;51.142;16.892;2023-12-04T07:57:01;14.83;;;12.87;;
6539;SDS011;50344;51.142;16.892;2023-12-04T07:59:27;13.17;;;11.77;;
6539;SDS011;50344;51.142;16.892;2023-12-04T08:01:53;13.17;;;11.47;;
6539;SDS011;50344;51.142;16.892;2023-12-04T08:04:19;14.13;;;12.73;;
6539;SDS011;50344;51.142;16.892;2023-12-04T08:06:45;13.70;;;12.30;;
6539;SDS011;50344;51.142;16.892;2023-12-04T08:09:10;12.73;;;11.40;;
6539;SDS011;50344;51.142;16.892;2023-12-04T08:11:37;15.70;;;12.20;;
6539;SDS011;50344;51.142;16.892;2023-12-04T08:14:03;14.00;;;12.63;;
6539;SDS011;50344;51.142;16.892;2023-12-04T08:16:29;14.80;;;13.30;;
6539;SDS011;50344;51.142;16.892;2023-12-04T08:18:55;13.10;;;11.80;;
6539;SDS011;50344;51.142;16.892;2023-12-04T08:21:21;12.30;;;11.10;;
6539;SDS011;50344;51.142;16.892;2023-12-04T08:23:46;12.87;;;11.50;;
6539;SDS011;50344;51.142;16.892;2023-12-04T08:26:12;17.53;;;13.30;;
6539;SDS011;50344;51.142;16.892;2023-12-04T08:28:38;17.27;;;13.50;;
6539;SDS011;50344;51.142;16.892;2023-12-04T08:31:07;19.27;;;13.97;;
6539;SDS011;50344;51.142;16.892;2023-12-04T08:33:33;20.37;;;15.03;;
6539;SDS011;50344;51.142;16.892;2023-12-04T08:36:00;19.97;;;15.70;;
6539;SDS011;50344;51.142;16.892;2023-12-04T08:38:25;20.03;;;16.00;;
6539;SDS011;50344;51.142;16.892;2023-12-04T08:40:52;17.07;;;15.00;;
6539;SDS011;50344;51.142;16.892;2023-12-04T08:43:18;18.03;;;16.23;;
6539;SDS011;50344;51.142;16.892;2023-12-04T08:45:45;17.10;;;15.40;;
6539;SDS011;50344;51.142;16.892;2023-12-04T08:48:11;19.67;;;16.33;;
6539;SDS011;50344;51.142;16.892;2023-12-04T08:50:36;18.03;;;16.20;;
6539;SDS011;50344;51.142;16.892;2023-12-04T08:53:03;21.03;;;17.20;;
6539;SDS011;50344;51.142;16.892;2023-12-04T08:55:29;20.07;;;16.50;;
6539;SDS011;50344;51.142;16.892;2023-12-04T08:57:55;18.53;;;16.57;;
6539;SDS011;50344;51.142;16.892;2023-12-04T09:00:20;17.30;;;15.80;;
6539;SDS011;50344;51.142;16.892;2023-12-04T09:02:47;19.30;;;17.30;;
6539;SDS011;50344;51.142;16.892;2023-12-04T09:05:13;17.93;;;16.20;;
6539;SDS011;50344;51.142;16.892;2023-12-04T09:07:39;18.90;;;16.90;;
6539;SDS011;50344;51.142;16.892;2023-12-04T09:10:05;18.33;;;16.63;;
6539;SDS011;50344;51.142;16.892;2023-12-04T09:12:31;20.17;;;18.00;;
6539;SDS011;50344;51.142;16.892;2023-12-04T09:14:56;20.50;;;18.50;;
6539;SDS011;50344;51.142;16.892;2023-12-04T09:17:22;19.70;;;17.80;;
6539;SDS011;50344;51.142;16.892;2023-12-04T09:19:48;20.13;;;18.13;;
6539;SDS011;50344;51.142;16.892;2023-12-04T09:22:13;19.33;;;17.70;;
6539;SDS011;50344;51.142;16.892;2023-12-04T09:24:39;21.27;;;19.17;;
6539;SDS011;50344;51.142;16.892;2023-12-04T09:27:05;19.57;;;17.77;;
6539;SDS011;50344;51.142;16.892;2023-12-04T09:29:33;21.30;;;19.37;;
6539;SDS011;50344;51.142;16.892;2023-12-04T09:31:59;20.67;;;18.70;;
6539;SDS011;50344;51.142;16.892;2023-12-04T09:34:25;20.57;;;18.67;;
6539;SDS011;50344;51.142;16.892;2023-12-04T09:36:50;21.47;;;19.33;;
6539;SDS011;50344;51.142;16.892;2023-12-04T09:39:16;20.30;;;18.27;;
6539;SDS011;50344;51.142;16.892;2023-12-04T09:41:42;18.40;;;16.70;;
6539;SDS011;50344;51.142;16.892;2023-12-04T09:44:09;19.37;;;17.57;;
6539;SDS011;50344;51.142;16.892;2023-12-04T09:46:35;18.30;;;16.70;;
6539;SDS011;50344;51.142;16.892;2023-12-04T09:49:01;19.73;;;17.83;;
6539;SDS011;50344;51.142;16.892;2023-12-04T09:51:29;18.73;;;17.00;;
6539;SDS011;50344;51.142;16.892;2023-12-04T09:53:55;17.93;;;16.33;;
6539;SDS011;50344;51.142;16.892;2023-12-04T09:56:24;16.57;;;15.00;;
6539;SDS011;50344;51.142;16.892;2023-12-04T09:58:53;17.30;;;15.60;;
6539;SDS011;50344;51.142;16.892;2023-12-04T10:01:24;17.47;;;15.67;;
6539;SDS011;50344;51.142;16.892;2023-12-04T10:03:51;15.30;;;13.90;;
6539;SDS011;50344;51.142;16.892;2023-12-04T10:06:16;15.27;;;13.97;;
6539;SDS011;50344;51.142;16.892;2023-12-04T10:08:45;24.23;;;13.77;;
6539;SDS011;50344;51.142;16.892;2023-12-04T10:11:12;15.83;;;14.47;;
6539;SDS011;50344;51.142;16.892;2023-12-04T10:13:38;14.20;;;12.97;;
6539;SDS011;50344;51.142;16.892;2023-12-04T10:16:05;15.30;;;13.90;;
6539;SDS011;50344;51.142;16.892;2023-12-04T10:18:31;16.80;;;15.20;;
6539;SDS011;50344;51.142;16.892;2023-12-04T10:20:57;17.23;;;15.63;;
6539;SDS011;50344;51.142;16.892;2023-12-04T10:23:37;16.37;;;14.97;;
6539;SDS011;50344;51.142;16.892;2023-12-04T10:26:04;15.67;;;14.17;;
6539;SDS011;50344;51.142;16.892;2023-12-04T10:28:30;14.73;;;13.63;;
6539;SDS011;50344;51.142;16.892;2023-12-04T10:30:56;18.17;;;16.63;;
6539;SDS011;50344;51.142;16.892;2023-12-04T10:33:21;27.97;;;25.10;;
6539;SDS011;50344;51.142;16.892;2023-12-04T10:35:52;30.67;;;27.47;;
6539;SDS011;50344;51.142;16.892;2023-12-04T10:38:18;28.37;;;25.50;;
6539;SDS011;50344;51.142;16.892;2023-12-04T10:40:44;28.60;;;25.60;;
6539;SDS011;50344;51.142;16.892;2023-12-04T10:45:41;24.17;;;21.60;;
6539;SDS011;50344;51.142;16.892;2023-12-04T10:48:09;24.77;;;22.13;;
6539;SDS011;50344;51.142;16.892;2023-12-04T10:50:42;20.77;;;18.73;;
6539;SDS011;50344;51.142;16.892;2023-12-04T10:53:12;20.00;;;17.90;;
6539;SDS011;50344;51.142;16.892;2023-12-04T10:55:40;19.10;;;17.10;;
6539;SDS011;50344;51.142;16.892;2023-12-04T10:58:07;18.10;;;16.20;;
6539;SDS011;50344;51.142;16.892;2023-12-04T11:00:35;17.23;;;15.53;;
6539;SDS011;50344;51.142;16.892;2023-12-04T11:03:04;16.47;;;14.67;;
6539;SDS011;50344;51.142;16.892;2023-12-04T11:05:37;15.50;;;13.87;;
6539;SDS011;50344;51.142;16.892;2023-12-04T11:08:05;14.77;;;13.20;;
6539;SDS011;50344;51.142;16.892;2023-12-04T11:10:32;14.60;;;13.00;;
6539;SDS011;50344;51.142;16.892;2023-12-04T11:13:01;13.27;;;12.00;;
6539;SDS011;50344;51.142;16.892;2023-12-04T11:15:31;42.83;;;17.40;;
6539;SDS011;50344;51.142;16.892;2023-12-04T11:18:04;15.50;;;12.03;;
6539;SDS011;50344;51.142;16.892;2023-12-04T11:20:31;16.47;;;12.60;;
6539;SDS011;50344;51.142;16.892;2023-12-04T11:23:06;14.63;;;11.37;;
6539;SDS011;50344;51.142;16.892;2023-12-04T11:25:33;13.43;;;12.03;;
6539;SDS011;50344;51.142;16.892;2023-12-04T11:28:02;14.03;;;11.20;;
6539;SDS011;50344;51.142;16.892;2023-12-04T11:30:29;12.93;;;10.43;;
6539;SDS011;50344;51.142;16.892;2023-12-04T11:32:56;12.57;;;10.77;;
6539;SDS011;50344;51.142;16.892;2023-12-04T11:35:22;15.00;;;10.07;;
6539;SDS011;50344;51.142;16.892;2023-12-04T11:37:51;10.97;;;8.80;;
6539;SDS011;50344;51.142;16.892;2023-12-04T11:40:17;9.90;;;8.90;;
6539;SDS011;50344;51.142;16.892;2023-12-04T11:42:44;10.20;;;9.10;;
6539;SDS011;50344;51.142;16.892;2023-12-04T11:45:10;10.40;;;9.00;;
6539;SDS011;50344;51.142;16.892;2023-12-04T11:47:49;10.50;;;8.93;;
6539;SDS011;50344;51.142;16.892;2023-12-04T11:50:16;9.83;;;8.80;;
6539;SDS011;50344;51.142;16.892;2023-12-04T11:52:44;10.00;;;8.60;;
6539;SDS011;50344;51.142;16.892;2023-12-04T11:55:10;9.33;;;8.40;;
6539;SDS011;50344;51.142;16.892;2023-12-04T11:57:36;9.63;;;8.23;;
6539;SDS011;50344;51.142;16.892;2023-12-04T12:00:12;9.73;;;8.53;;
6539;SDS011;50344;51.142;16.892;2023-12-04T12:05:17;7.83;;;7.13;;
6539;SDS011;50344;51.142;16.892;2023-12-04T12:07:43;8.83;;;7.90;;
6539;SDS011;50344;51.142;16.892;2023-12-04T12:10:09;8.57;;;7.47;;
6539;SDS011;50344;51.142;16.892;2023-12-04T12:12:36;8.43;;;6.80;;
6539;SDS011;50344;51.142;16.892;2023-12-04T12:15:02;7.87;;;7.07;;
6539;SDS011;50344;51.142;16.892;2023-12-04T12:17:28;7.60;;;6.70;;
6539;SDS011;50344;51.142;16.892;2023-12-04T12:19:54;6.77;;;6.07;;
6539;SDS011;50344;51.142;16.892;2023-12-04T12:22:22;6.90;;;6.30;;
6539;SDS011;50344;51.142;16.892;2023-12-04T12:24:48;6.80;;;5.93;;
6539;SDS011;50344;51.142;16.892;2023-12-04T12:27:14;6.80;;;6.10;;
6539;SDS011;50344;51.142;16.892;2023-12-04T12:29:40;6.00;;;5.40;;
6539;SDS011;50344;51.142;16.892;2023-12-04T12:32:06;6.50;;;5.80;;
6539;SDS011;50344;51.142;16.892;2023-12-04T12:34:31;6.40;;;5.40;;
6539;SDS011;50344;51.142;16.892;2023-12-04T12:37:00;6.90;;;6.17;;
6539;SDS011;50344;51.142;16.892;2023-12-04T12:39:30;7.40;;;5.70;;
6539;SDS011;50344;51.142;16.892;2023-12-04T12:41:56;5.37;;;4.87;;
6539;SDS011;50344;51.142;16.892;2023-12-04T12:44:22;5.80;;;5.20;;
6539;SDS011;50344;51.142;16.892;2023-12-04T12:46:48;5.03;;;4.53;;
6539;SDS011;50344;51.142;16.892;2023-12-04T12:49:17;5.20;;;4.70;;
6539;SDS011;50344;51.142;16.892;2023-12-04T12:51:45;4.97;;;4.47;;
6539;SDS011;50344;51.142;16.892;2023-12-04T12:54:11;5.07;;;4.57;;
6539;SDS011;50344;51.142;16.892;2023-12-04T12:56:37;4.17;;;3.77;;
6539;SDS011;50344;51.142;16.892;2023-12-04T12:59:02;4.77;;;3.90;;
6539;SDS011;50344;51.142;16.892;2023-12-04T13:01:33;4.50;;;3.87;;
6539;SDS011;50344;51.142;16.892;2023-12-04T13:03:59;3.90;;;3.43;;
6539;SDS011;50344;51.142;16.892;2023-12-04T13:06:25;4.53;;;3.73;;
6539;SDS011;50344;51.142;16.892;2023-12-04T13:08:51;4.27;;;3.40;;
6539;SDS011;50344;51.142;16.892;2023-12-04T13:11:17;4.03;;;3.63;;
6539;SDS011;50344;51.142;16.892;2023-12-04T13:13:43;4.13;;;3.63;;
6539;SDS011;50344;51.142;16.892;2023-12-04T13:16:09;3.63;;;3.33;;
6539;SDS011;50344;51.142;16.892;2023-12-04T13:18:35;4.13;;;3.73;;
6539;SDS011;50344;51.142;16.892;2023-12-04T13:21:02;3.27;;;2.90;;
6539;SDS011;50344;51.142;16.892;2023-12-04T13:23:28;5.03;;;2.97;;
6539;SDS011;50344;51.142;16.892;2023-12-04T13:25:54;5.37;;;3.57;;
6539;SDS011;50344;51.142;16.892;2023-12-04T13:28:20;4.40;;;3.60;;
6539;SDS011;50344;51.142;16.892;2023-12-04T13:30:46;3.87;;;3.30;;
6539;SDS011;50344;51.142;16.892;2023-12-04T13:33:11;5.30;;;3.80;;
6539;SDS011;50344;51.142;16.892;2023-12-04T13:35:37;3.77;;;3.47;;
6539;SDS011;50344;51.142;16.892;2023-12-04T13:38:02;3.60;;;3.30;;
6539;SDS011;50344;51.142;16.892;2023-12-04T13:40:32;4.30;;;3.80;;
6539;SDS011;50344;51.142;16.892;2023-12-04T13:42:59;3.97;;;3.50;;
6539;SDS011;50344;51.142;16.892;2023-12-04T13:45:43;4.30;;;3.90;;
6539;SDS011;50344;51.142;16.892;2023-12-04T13:48:09;3.87;;;3.13;;
6539;SDS011;50344;51.142;16.892;2023-12-04T13:50:35;4.00;;;3.40;;
6539;SDS011;50344;51.142;16.892;2023-12-04T13:53:00;3.80;;;3.33;;
6539;SDS011;50344;51.142;16.892;2023-12-04T13:55:26;4.13;;;3.73;;
6539;SDS011;50344;51.142;16.892;2023-12-04T13:58:10;3.97;;;3.50;;
6539;SDS011;50344;51.142;16.892;2023-12-04T14:00:56;4.93;;;3.80;;
6539;SDS011;50344;51.142;16.892;2023-12-04T14:03:22;4.23;;;3.67;;
6539;SDS011;50344;51.142;16.892;2023-12-04T14:05:48;3.70;;;3.30;;
6539;SDS011;50344;51.142;16.892;2023-12-04T14:08:13;3.47;;;3.17;;
6539;SDS011;50344;51.142;16.892;2023-12-04T14:10:39;4.37;;;3.87;;
6539;SDS011;50344;51.142;16.892;2023-12-04T14:13:05;4.03;;;3.40;;
6539;SDS011;50344;51.142;16.892;2023-12-04T14:15:30;4.07;;;3.67;;
6539;SDS011;50344;51.142;16.892;2023-12-04T14:17:56;4.13;;;3.40;;
6539;SDS011;50344;51.142;16.892;2023-12-04T14:20:22;4.00;;;3.60;;
6539;SDS011;50344;51.142;16.892;2023-12-04T14:22:47;4.70;;;4.10;;
6539;SDS011;50344;51.142;16.892;2023-12-04T14:25:13;3.80;;;3.40;;
6539;SDS011;50344;51.142;16.892;2023-12-04T14:27:39;3.90;;;3.50;;
6539;SDS011;50344;51.142;16.892;2023-12-04T14:30:08;3.47;;;3.00;;
6539;SDS011;50344;51.142;16.892;2023-12-04T14:32:36;3.33;;;3.03;;
6539;SDS011;50344;51.142;16.892;2023-12-04T14:35:05;3.90;;;3.40;;